Latest Coastal Weather Observations for Hamilton Island

IDQ60701

Issued at 12:12 am EST Thursday 28 May 2015 (issued every 10 minutes, with the page automatically refreshed every 10 minutes)

About coastal observations | Map of coastal stations | Coastal observations for QLD | Marine services | Other Formats
Station Details ID: 033106 Name: HAMILTON ISLAND AIRPORT Lat: -20.37 Lon: 148.95 Height: 58.66 m
Data from the previous 72 hours. | See also: Recent months at Hamilton Island
Date/Time
EST
Temp

°C
Wind Pressure Rain
since 9am
mm
Weather Cloud Vis
km
Sea
Height
m
Swell
Dir
 
Speed
knots
Gust
knots
hPa Trend Height
m
Period
s
Dir
28/12:00am 22.0 SE 12 14 1019.5 - 0.0 - - 10 - - - -
 
Date/Time
EST
Temp

°C
Wind Pressure Rain
since 9am
mm
Weather Cloud Vis
km
Sea
Height
m
Swell
Dir
 
Speed
knots
Gust
knots
hPa Trend Height
m
Period
s
Dir
27/11:30pm 22.2 SE 14 16 1020.1 - 0.0 - - 10 - - - -
27/11:00pm 22.5 ESE 15 17 1020.3 - 0.0 - Partly cloudy 10 - - - -
27/10:30pm 22.4 ESE 14 18 1020.5 - 0.0 - - 10 - - - -
27/10:00pm 22.5 ESE 15 19 1020.6 - 0.0 - Partly cloudy 10 - - - -
27/09:30pm 22.4 ESE 14 17 1020.6 - 0.0 - - 10 - - - -
27/09:00pm 22.4 SE 16 18 1020.2 - 0.0 - Mostly clear 10 - - - -
27/08:30pm 22.3 SE 18 20 1020.6 - 0.0 - - 10 - - - -
27/08:00pm 22.3 SE 17 21 1020.5 - 0.0 - Partly cloudy 10 - - - -
27/07:30pm 22.3 SE 18 22 1020.2 - 0.0 - Partly cloudy 10 - - - -
27/07:00pm 22.4 SE 20 23 1019.8 - 0.0 - Partly cloudy 10 - - - -
27/06:30pm 22.1 SE 20 22 1019.8 - 0.0 - Partly cloudy 10 - - - -
27/06:00pm 22.0 SE 20 23 1019.2 - 0.0 - Mostly clear 10 - - - -
27/05:30pm 22.2 SE 20 24 1019.4 - 0.0 - Partly cloudy 10 - - - -
27/05:00pm 22.4 SE 16 20 1019.1 - 0.0 - Partly cloudy 10 - - - -
27/04:59pm 22.3 SE 16 20 1019.1 - 0.0 - Partly cloudy 10 - - - -
27/04:30pm 22.2 SE 16 18 1019.0 - 0.0 - Partly cloudy 10 - - - -
27/04:00pm 22.1 SSE 18 21 1019.1 - 0.0 - Partly cloudy 10 - - - -
27/03:58pm 22.1 SSE 18 21 1019.1 - 0.0 - Partly cloudy 10 - - - -
27/03:30pm 22.2 SSE 19 22 1018.8 - 0.0 - - 10 - - - -
27/03:03pm 22.1 SSE 19 23 1018.9 - 0.0 - Partly cloudy 10 - - - -
27/03:00pm 22.1 SSE 19 23 1018.7 - 0.0 - Mostly clear 10 - - - -
27/02:30pm 22.2 SSE 18 20 1018.9 - 0.0 - Cloudy 10 - - - -
27/02:00pm 22.3 SSE 18 21 1019.1 - 0.0 - Partly cloudy 10 - - - -
27/01:30pm 22.0 SSE 19 22 1019.1 - 0.0 - Partly cloudy 10 - - - -
27/01:00pm 22.3 SSE 19 23 1019.6 - 0.0 - Partly cloudy 10 - - - -
27/12:56pm 22.3 SSE 19 23 1019.7 - 0.0 - Partly cloudy 10 - - - -
27/12:30pm 22.5 SSE 18 22 1020.1 - 0.0 - - 10 - - - -
27/12:00pm 22.3 SSE 20 24 1020.3 - 0.0 - Mostly clear 10 - - - -
27/11:30am 22.0 SSE 23 26 1021.1 - 0.0 - Partly cloudy 10 - - - -
27/11:23am 22.1 SSE 22 25 1021.2 - 0.0 - Partly cloudy 10 - - - -
27/11:00am 22.3 SSE 18 22 1021.4 - 0.0 - Partly cloudy 10 - - - -
27/10:40am 22.0 SSE 17 23 1021.6 - 0.0 - Partly cloudy 10 - - - -
27/10:30am 21.9 SSE 16 21 1021.8 - 0.0 - Partly cloudy 10 - - - -
27/10:00am 21.9 SSE 17 21 1022.1 - 0.0 - Partly cloudy 10 - - - -
27/09:50am 21.6 SSE 19 22 1022.0 - 0.0 - Partly cloudy 10 - - - -
27/09:30am 21.5 SSE 18 23 1021.9 - 0.0 - Partly cloudy 10 - - - -
27/09:17am 21.6 SSE 19 23 1021.9 - 0.0 - Partly cloudy 10 - - - -
27/09:00am 21.1 SSE 18 22 1021.4 - 6.0 - Partly cloudy 10 - - - -
27/08:30am 20.6 S 19 24 1021.7 - 6.0 - Partly cloudy 10 - - - -
27/08:09am 20.6 SSE 18 23 1021.5 - 6.0 - Partly cloudy 10 - - - -
27/08:00am 20.5 S 17 23 1021.3 - 6.0 - Partly cloudy 10 - - - -
27/07:30am 20.7 SSE 17 21 1021.0 - 6.0 - Partly cloudy 10 - - - -
27/07:00am 20.6 S 17 22 1020.9 - 6.0 - Partly cloudy 10 - - - -
27/06:30am 20.3 S 17 22 1020.6 - 6.0 - Partly cloudy 10 - - - -
27/06:00am 20.5 S 17 22 1020.1 - 6.0 - Cloudy 10 - - - -
27/05:30am 20.5 S 17 22 1020.1 - 6.0 - Partly cloudy 10 - - - -
27/05:00am 22.0 SE 16 19 1019.6 - 6.0 - Partly cloudy 10 - - - -
27/04:30am 22.1 ESE 18 21 1019.5 - 5.8 - Partly cloudy 10 - - - -
27/04:00am 21.0 S 14 18 1019.7 - 5.8 - Partly cloudy 10 - - - -
27/03:30am 21.8 SE 19 22 1019.6 - 5.8 - Partly cloudy 10 - - - -
27/03:12am 21.4 SE 18 21 1019.6 - 5.8 - Partly cloudy 10 - - - -
27/03:01am 21.1 SE 16 19 1019.7 - 5.8 - Partly cloudy 9 - - - -
27/03:00am 21.2 SE 16 19 1019.4 - 5.8 - Cloudy 9 - - - -
27/02:34am 21.5 SE 20 23 1019.8 - 5.8 - Partly cloudy 6 - - - -
27/02:30am 21.6 SSE 20 23 1019.7 - 5.8 - Partly cloudy 10 - - - -
27/02:00am 21.7 SE 21 24 1019.9 - 5.8 - Partly cloudy 10 - - - -
27/01:54am 21.7 SE 20 24 1019.9 - 5.6 - Partly cloudy 10 - - - -
27/01:46am 21.7 SE 19 23 1020.0 - 5.6 - Partly cloudy 10 - - - -
27/01:30am 21.7 SE 20 24 1020.2 - 5.6 - Partly cloudy 10 - - - -
27/01:00am 21.6 SE 20 23 1020.5 - 5.6 - Partly cloudy 10 - - - -
27/12:30am 21.3 SE 21 24 1020.5 - 5.6 - Partly cloudy 10 - - - -
27/12:02am 20.9 SE 18 21 1020.9 - 5.6 - Partly cloudy 10 - - - -
27/12:00am 20.9 SE 18 22 1020.6 - 5.6 - Cloudy 10 - - - -
 
Date/Time
EST
Temp

°C
Wind Pressure Rain
since 9am
mm
Weather Cloud Vis
km
Sea
Height
m
Swell
Dir
 
Speed
knots
Gust
knots
hPa Trend Height
m
Period
s
Dir
26/11:44pm 20.7 SSE 21 27 1021.0 - 5.6 - Partly cloudy 6 - - - -
26/11:30pm 20.9 SSE 19 23 1021.4 - 3.4 - Partly cloudy 10 - - - -
26/11:00pm 20.8 SSE 22 26 1021.4 - 3.4 - Partly cloudy 10 - - - -
26/10:43pm 20.6 SSE 19 23 1021.5 - 1.0 - Partly cloudy 10 - - - -
26/10:30pm 20.9 SSE 18 21 1021.7 - 1.0 - Partly cloudy 6 - - - -
26/10:29pm 20.9 SSE 18 21 1021.7 - 1.0 - Partly cloudy 6 - - - -
26/10:26pm 21.0 SSE 19 23 1021.7 - 0.8 - Partly cloudy 8 - - - -
26/10:00pm 20.9 SSE 22 25 1021.7 - 0.6 - Partly cloudy 10 - - - -
26/09:30pm 21.0 SSE 20 25 1021.7 - 0.6 - Partly cloudy 10 - - - -
26/09:01pm 20.9 SSE 20 25 1022.1 - 0.6 - Partly cloudy 10 - - - -
26/09:00pm 20.8 SSE 20 25 1021.8 - 0.6 - Mostly cloudy 10 - - - -
26/08:30pm 20.8 SSE 20 25 1022.2 - 0.6 - Partly cloudy 10 - - - -
26/08:22pm 20.8 SSE 20 25 1022.2 - 0.6 - Partly cloudy 10 - - - -
26/08:04pm 20.9 SSE 19 24 1022.2 - 0.6 - Partly cloudy 10 - - - -
26/08:00pm 21.0 SSE 19 24 1022.1 - 0.6 - Partly cloudy 10 - - - -
26/07:59pm 21.0 SSE 19 24 1022.1 - 0.6 - Partly cloudy 10 - - - -
26/07:39pm 20.9 SSE 17 22 1021.9 - 0.6 - Partly cloudy 6 - - - -
26/07:30pm 21.1 SSE 17 21 1021.9 - 0.0 - Partly cloudy 10 - - - -
26/07:19pm 21.0 SSE 18 21 1021.8 - 0.0 - Partly cloudy 10 - - - -
26/07:00pm 21.4 SSE 18 22 1021.8 - 0.0 - Partly cloudy 10 - - - -
26/06:30pm 21.3 SSE 18 22 1021.5 - 0.0 - Partly cloudy 10 - - - -
26/06:00pm 21.6 SSE 18 21 1020.9 - 0.0 - Cloudy 10 - - - -
26/05:32pm 21.8 SSE 18 21 1020.8 - 0.0 - Partly cloudy 10 - - - -
26/05:30pm 21.8 SSE 18 21 1020.8 - 0.0 - Partly cloudy 10 - - - -
26/05:19pm 21.7 SSE 17 20 1020.8 - 0.0 - Partly cloudy 10 - - - -
26/05:00pm 21.7 SSE 18 20 1020.7 - 0.0 - Partly cloudy 10 - - - -
26/04:30pm 22.1 SSE 16 18 1020.6 - 0.0 - Partly cloudy 10 - - - -
26/04:00pm 22.0 SSE 17 19 1020.5 - 0.0 - Partly cloudy 10 - - - -
26/03:50pm 22.3 SSE 17 20 1020.4 - 0.0 - Partly cloudy 10 - - - -
26/03:30pm 21.7 SSE 19 22 1020.4 - 0.0 - Partly cloudy 10 - - - -
26/03:00pm 21.7 SSE 20 23 1020.4 - 0.0 - Cloudy 10 - - - -
26/02:30pm 21.8 SSE 18 21 1020.9 - 0.0 - Partly cloudy 10 - - - -
26/02:00pm 21.9 SSE 20 24 1021.2 - 0.0 - Partly cloudy 10 - - - -
26/01:58pm 21.8 SSE 20 24 1021.3 - 0.0 - Partly cloudy 10 - - - -
26/01:33pm 21.9 SSE 21 24 1021.4 - 0.0 - Partly cloudy 10 - - - -
26/01:30pm 21.7 SSE 21 25 1021.5 - 0.0 - Partly cloudy 10 - - - -
26/01:10pm 21.7 SSE 22 26 1021.7 - 0.0 - Partly cloudy 10 - - - -
26/01:00pm 21.4 SSE 23 27 1021.8 - 0.0 - Partly cloudy 10 - - - -
26/12:49pm 21.6 SSE 22 27 1022.0 - 0.0 - Partly cloudy 10 - - - -
26/12:30pm 21.7 SSE 21 25 1022.3 - 0.0 - Partly cloudy 10 - - - -
26/12:00pm 21.3 SSE 23 28 1022.6 - 0.0 - Cloudy 10 - - - -
26/11:30am 21.2 SSE 23 27 1022.9 - 0.0 - Partly cloudy 9 - - - -
26/11:00am 21.4 SSE 24 28 1023.2 - 0.0 - Cloudy 10 - - - -
26/10:46am 21.5 SSE 24 27 1023.3 - 0.0 - Partly cloudy 10 - - - -
26/10:32am 21.7 SSE 25 28 1023.3 - 0.0 - Partly cloudy 10 - - - -
26/10:30am 21.7 SSE 25 28 1023.4 - 0.0 - Partly cloudy 10 - - - -
26/10:00am 21.3 SSE 25 29 1023.7 - 0.0 - Partly cloudy 10 - - - -
26/09:30am 20.9 SSE 26 29 1023.8 - 0.0 - Partly cloudy 10 - - - -
26/09:00am 20.7 SSE 23 28 1023.6 - 1.2 - Cloudy 10 - - - -
26/08:58am 20.7 SSE 22 28 1023.9 - 1.2 - Partly cloudy 10 - - - -
26/08:30am 20.2 SSE 25 35 1023.7 - 1.2 - Partly cloudy 10 - - - -
26/08:29am 20.3 SSE 25 35 1023.8 - 1.2 - Partly cloudy 10 - - - -
26/08:12am 20.1 SSE 27 32 1023.5 - 0.8 - Partly cloudy 6 - - - -
26/08:00am 20.6 SSE 23 29 1023.5 - 0.4 - Partly cloudy 10 - - - -
26/07:57am 20.5 SSE 23 29 1023.5 - 0.4 - Partly cloudy 10 - - - -
26/07:30am 20.7 SSE 24 29 1023.4 - 0.4 - Partly cloudy 10 - - - -
26/07:00am 21.1 SSE 28 32 1022.9 - 0.2 - Partly cloudy 10 - - - -
26/06:30am 21.4 SSE 25 29 1022.9 - 0.2 - Partly cloudy 10 - - - -
26/06:00am 22.1 SE 20 25 1022.5 - 0.2 - Cloudy 10 - - - -
26/05:52am 21.3 SSE 20 24 1022.7 - 0.2 - Partly cloudy 10 - - - -
26/05:35am 20.5 S 17 21 1022.9 - 0.2 - Partly cloudy 10 - - - -
26/05:30am 20.4 S 18 21 1022.7 - 0.2 - Partly cloudy 10 - - - -
26/05:10am 20.5 S 18 25 1022.5 - 0.2 - Partly cloudy 10 - - - -
26/05:00am 20.9 SSE 17 24 1022.6 - 0.2 - Partly cloudy 10 - - - -
26/04:30am 21.5 S 15 22 1022.4 - 0.2 - Partly cloudy 10 - - - -
26/04:13am 22.3 SE 17 21 1022.5 - 0.2 - Partly cloudy 10 - - - -
26/04:02am 22.5 E 20 23 1022.3 - 0.2 - Partly cloudy 10 - - - -
26/04:00am 22.2 SE 17 19 1022.5 - 0.2 - Partly cloudy 10 - - - -
26/03:30am 22.9 ESE 19 22 1022.3 - 0.2 - Partly cloudy 10 - - - -
26/03:00am 21.0 SE 18 25 1022.1 - 0.2 - Cloudy 10 - - - -
26/02:52am 21.6 SSE 20 25 1022.4 - 0.2 - Partly cloudy 10 - - - -
26/02:30am 22.4 ESE 15 17 1022.6 - 0.2 - Partly cloudy 10 - - - -
26/02:00am 22.0 ESE 18 25 1022.9 - 0.2 - Partly cloudy 10 - - - -
26/01:30am 22.3 ESE 28 32 1022.7 - 0.2 - Partly cloudy 10 - - - -
26/01:00am 22.6 ESE 21 26 1022.8 - 0.2 - Partly cloudy 10 - - - -
26/12:30am 22.4 ESE 26 30 1023.0 - 0.2 - Partly cloudy 10 - - - -
26/12:00am 22.5 ESE 21 27 1023.0 - 0.2 - Mostly cloudy 10 - - - -
 
Date/Time
EST
Temp

°C
Wind Pressure Rain
since 9am
mm
Weather Cloud Vis
km
Sea
Height
m
Swell
Dir
 
Speed
knots
Gust
knots
hPa Trend Height
m
Period
s
Dir
25/11:30pm 22.6 ESE 21 25 1023.4 - 0.2 - Partly cloudy 10 - - - -
25/11:00pm 22.6 SE 20 26 1023.7 - 0.2 - Partly cloudy 10 - - - -
25/10:30pm 22.5 ESE 22 27 1023.9 - 0.2 - Partly cloudy 10 - - - -
25/10:00pm 22.6 ESE 21 26 1023.9 - 0.2 - Partly cloudy 10 - - - -
25/09:30pm 22.6 ESE 20 29 1023.9 - 0.2 - Partly cloudy 10 - - - -
25/09:22pm 22.5 SE 18 29 1023.7 - 0.2 - Partly cloudy 10 - - - -
25/09:00pm 22.5 SE 17 19 1023.5 - 0.2 - Mostly cloudy 10 - - - -
25/08:30pm 22.6 SE 19 23 1023.5 - 0.2 - Partly cloudy 10 - - - -
25/08:00pm 22.7 ESE 20 23 1023.2 - 0.2 - Partly cloudy 10 - - - -
25/07:30pm 22.4 SE 22 25 1023.2 - 0.2 - Partly cloudy 10 - - - -
25/07:00pm 22.3 SE 19 24 1023.0 - 0.2 - Partly cloudy 10 - - - -
25/06:30pm 22.7 SE 18 21 1022.9 - 0.2 - Partly cloudy 10 - - - -
25/06:00pm 23.0 ESE 19 23 1022.4 - 0.2 - Mostly clear 10 - - - -
25/05:30pm 22.7 ESE 18 21 1022.5 - 0.2 - Partly cloudy 10 - - - -
25/05:21pm 22.7 ESE 19 24 1022.3 - 0.2 - Partly cloudy 10 - - - -
25/05:00pm 21.7 SSE 20 23 1022.5 - 0.2 - Partly cloudy 10 - - - -
25/04:30pm 22.0 SSE 19 23 1022.4 - 0.2 - Partly cloudy 10 - - - -
25/04:00pm 21.9 SSE 22 25 1022.5 - 0.2 - Partly cloudy 10 - - - -
25/03:30pm 22.0 SSE 21 24 1022.4 - 0.2 - - 10 - - - -
25/03:00pm 22.0 SSE 22 27 1022.3 - 0.2 - Mostly clear 10 - - - -
25/02:39pm 22.1 SSE 22 25 1022.6 - 0.2 - Partly cloudy 10 - - - -
25/02:30pm 22.2 SSE 22 26 1022.6 - 0.2 - Partly cloudy 10 - - - -
25/02:20pm 22.0 SSE 23 26 1022.7 - 0.2 - Partly cloudy 10 - - - -
25/02:00pm 21.4 SSE 22 27 1022.8 - 0.2 - Partly cloudy 10 - - - -
25/01:30pm 21.7 SSE 21 25 1022.8 - 0.2 - Partly cloudy 10 - - - -
25/01:00pm 21.9 SSE 23 26 1023.0 - 0.2 - Partly cloudy 10 - - - -
25/12:30pm 22.5 SSE 23 28 1023.1 - 0.2 - Partly cloudy 10 - - - -
25/12:00pm 23.5 SE 22 27 1023.3 - 0.2 - Mostly cloudy 10 - - - -
25/11:30am 23.3 SE 20 29 1023.9 - 0.2 - Partly cloudy 10 - - - -
25/11:19am 23.0 SSE 20 30 1023.9 - 0.2 - Partly cloudy 10 - - - -
25/11:00am 22.9 SSE 20 24 1024.5 - 0.0 - Partly cloudy 10 - - - -
25/10:55am 23.2 SSE 20 24 1024.6 - 0.0 - Partly cloudy 10 - - - -
25/10:30am 25.1 ESE 22 25 1024.6 - 0.0 - Partly cloudy 10 - - - -
25/10:00am 24.8 SE 21 25 1025.1 - 0.0 - Partly cloudy 10 - - - -
25/09:30am 24.5 ESE 21 25 1025.0 - 0.0 - Partly cloudy 10 - - - -
25/09:00am 23.8 ESE 24 27 1024.5 - 4.2 - Mostly cloudy 10 - - - -
25/08:30am 23.6 ESE 24 31 1024.2 - 4.2 - Partly cloudy 10 - - - -
25/08:00am 22.8 ESE 23 28 1023.7 - 4.2 - Partly cloudy 10 - - - -
25/07:30am 22.3 ESE 25 31 1023.8 - 4.2 - Partly cloudy 10 - - - -
25/07:00am 22.7 ESE 24 28 1023.5 - 4.0 - Partly cloudy 10 - - - -
25/06:30am 22.6 ESE 26 31 1023.1 - 4.0 - Partly cloudy 10 - - - -
25/06:00am 22.6 ESE 25 31 1022.5 - 4.0 - Mostly clear 10 - - - -
25/05:30am 22.6 ESE 26 32 1022.5 - 4.0 - Partly cloudy 10 - - - -
25/05:00am 22.7 ESE 25 29 1022.4 - 4.0 - Partly cloudy 10 - - - -
25/04:30am 22.8 ESE 24 31 1022.2 - 4.0 - Partly cloudy 10 - - - -
25/04:00am 22.7 ESE 23 26 1022.3 - 4.0 - Partly cloudy 10 - - - -
25/03:30am 22.8 ESE 24 28 1022.3 - 4.0 - Partly cloudy 10 - - - -
25/03:00am 22.8 ESE 25 30 1022.3 - 4.0 - Mostly clear 10 - - - -
25/02:30am 22.8 ESE 24 28 1022.5 - 4.0 - Partly cloudy 10 - - - -
25/02:00am 22.9 ESE 27 33 1022.6 - 4.0 - - 10 - - - -
25/01:30am 22.8 ESE 26 33 1023.0 - 4.0 - Partly cloudy 10 - - - -
25/01:00am 22.8 ESE 25 33 1023.4 - 3.8 - Partly cloudy 10 - - - -
25/12:30am 22.9 ESE 23 27 1023.4 - 3.8 - Partly cloudy 10 - - - -

Other Formats:

Comma delimited format used in spreadsheet applications
http://www.bom.gov.au/fwo/IDQ60701/IDQ60701.94368.axf

JavaScript Object Notation format (JSON) in row-major order
http://www.bom.gov.au/fwo/IDQ60701/IDQ60701.94368.json